LPPS/PXO METAR and TAF weather

Enter ICAO airport designator
Station Type Date Time Source
LPPS METAR 2022/01/29 12:30 UTC NOAA

LPPS 291230Z 11004KT 060V140 CAVOK 17/11 Q1023


Station Type Date Time Source
LPPS Decoded METAR 2022/01/29 12:30 UTC NOAA

Porto Santo, Portugal (LPPS) 33-04N 016-21W 82M
Jan 29, 2022 - 07:30 AM EST / 2022.01.29 1230 UTC
Wind: from the ESE (110 degrees) at 5 MPH (4 KT) (direction variable):0
Visibility: greater than 7 mile(s):0
Temperature: 62 F (17 C)
Dew Point: 51 F (11 C)
Relative Humidity: 67%
Pressure (altimeter): 30.21 in. Hg (1023 hPa)
ob: LPPS 291230Z 11004KT 060V140 CAVOK 17/11 Q1023
cycle: 12

Station Type Date Time Source
LPPS TAF 2022/01/29 12:18 UTC NOAA

TAF LPPS 291100Z 2912/3018 09007KT 9999 SCT015 PROB30
TEMPO 2912/2918 8000 SHRA BKN014 FEW018TCU
TEMPO 2912/3010 VRB05KT

Example: see airport list